Flight Track Log - Related Links

Times and Time Zones

All times are in EDT time to prevent confusion due to time zone crossing. See the N6036Y flight status page for this flight to view local times or setup timezone preferences in your user account.

Time Position Orientation Groundspeed Altitude Reporting Facility
EDT Latitude Longitude Course Direction KTS MPH feet Rate Location/Type
Sun 05:51:44 PM 29.0533 -80.9378 77° East 67 77 600  Level Jacksonville Center
Sun 05:52:08 PM 29.0553 -80.9281 77° East 76 87 800 706 Climbing Jacksonville Center
Sun 05:53:09 PM 29.0717 -80.9089 46° Northeast 85 98 1,600 730 Climbing Jacksonville Center
Sun 05:54:03 PM 29.0864 -80.9181 331° Northwest 81 93 2,200 694 Climbing Jacksonville Center
Sun 05:55:10 PM 29.0972 -80.9439 296° West 81 93 3,000 443 Climbing Jacksonville Center
Sun 05:56:05 PM 29.1081 -80.9653 300° West 91 105 3,100 259 Climbing Jacksonville Center
Sun 05:57:06 PM 29.1311 -80.9836 325° Northwest 87 100 3,500 516 Climbing Jacksonville Center
Sun 05:58:13 PM 29.1503 -81.0047 316° Northwest 82 94 4,200 626 Climbing Jacksonville Center
Sun 06:00:08 PM 29.1822 -81.0375 318° Northwest 73 84 5,400 614 Climbing Jacksonville Center
Sun 06:01:09 PM 29.1969 -81.0539 316° Northwest 82 94 6,000 541 Climbing Jacksonville Center
Sun 06:02:10 PM 29.2117 -81.0703 316° Northwest 72 83 6,500 492 Climbing Jacksonville Center
Sun 06:03:11 PM 29.2286 -81.0842 324° Northwest 75 86 7,000 298 Climbing Jacksonville Center
Sun 06:04:11 PM 29.2436 -81.1031 312° West 90 104 7,100  Climbing Jacksonville Center
Sun 06:06:19 PM 29.2900 -81.1450 322° Northwest 99 114 7,000 -32 Descending Jacksonville Center
Sun 06:07:20 PM 29.3092 -81.1661 316° Northwest 95 109 7,000 49 Level Jacksonville Center
Sun 06:08:21 PM 29.3303 -81.1894 316° Northwest 97 112 7,100 49 Climbing Jacksonville Center
Sun 06:09:22 PM 29.3494 -81.2081 320° Northwest 99 114 7,100 -49 Level Jacksonville Center
Sun 06:10:23 PM 29.3706 -81.2292 319° Northwest 98 113 7,000 -32 Descending Jacksonville Center
Sun 06:12:30 PM 29.4108 -81.2739 316° Northwest 90 104 7,000  Level Jacksonville Center
Sun 06:13:25 PM 29.4278 -81.2903 320° Northwest 92 106 7,000 -57 Level Jacksonville Center
Sun 06:14:16 PM 29.4444 -81.3067 319° Northwest 91 105 6,900 -57 Descending Jacksonville Center
Sun 06:15:11 PM 29.4614 -81.3231 320° Northwest 90 104 6,900 52 Level Jacksonville Center
Sun 06:16:12 PM 29.4806 -81.3419 319° Northwest 91 105 7,000 52 Climbing Jacksonville Center
Sun 06:17:07 PM 29.5017 -81.3583 326° Northwest 91 105 7,000 -49 Level Jacksonville Center
Sun 06:18:14 PM 29.5228 -81.3819 316° Northwest 95 109 6,900 -47 Descending Jacksonville Center
Sun 06:19:15 PM 29.5439 -81.4031 319° Northwest 91 105 6,900 49 Level Jacksonville Center
Sun 06:20:16 PM 29.5628 -81.4217 319° Northwest 93 107 7,000 49 Climbing Jacksonville Center
Sun 06:21:17 PM 29.5797 -81.4406 316° Northwest 93 107 7,000  Level Jacksonville Center
Sun 06:22:18 PM 29.5986 -81.4594 319° Northwest 95 109 7,000  Level Jacksonville Center
Sun 06:23:19 PM 29.6197 -81.4806 319° Northwest 94 108 7,000  Level Jacksonville Center
Sun 06:24:20 PM 29.6389 -81.5019 316° Northwest 93 107 7,000  Level Jacksonville Center
Sun 06:25:21 PM 29.6578 -81.5231 316° Northwest 95 109 7,000  Level Jacksonville Center
Sun 06:26:22 PM 29.6789 -81.5419 322° Northwest 95 109 7,000 281 Level Jacksonville Center
Sun 06:27:29 PM 29.6875 -81.5681 291° West 66 76 7,600 469 Climbing Jacksonville Center
Sun 06:28:30 PM 29.6919 -81.5894 283° West 70 81 8,000 197 Climbing Jacksonville Center
Sun 06:29:31 PM 29.6986 -81.6158 286° West 89 102 8,000  Level Jacksonville Center
Sun 06:30:32 PM 29.7092 -81.6419 295° West 91 105 8,000  Level Jacksonville Center
Sun 06:31:33 PM 29.7158 -81.6706 285° West 88 101 8,000 -49 Level Jacksonville Center
Sun 06:32:34 PM 29.7222 -81.6992 284° West 90 104 7,900  Descending Jacksonville Center
Sun 06:33:35 PM 29.7289 -81.7253 286° West 85 98 8,000  Climbing Jacksonville Center
Sun 06:34:36 PM 29.7353 -81.7542 284° West 88 101 7,900  Descending Jacksonville Center
Sun 06:35:37 PM 29.7419 -81.7803 286° West 89 102 8,000 49 Climbing Jacksonville Center
Sun 06:36:38 PM 29.7503 -81.8089 289° West 90 104 8,000 -49 Level Jacksonville Center
Sun 06:37:39 PM 29.7547 -81.8350 281° West 84 97 7,900 -49 Descending Jacksonville Center
Sun 06:38:40 PM 29.7633 -81.8614 291° West 84 97 7,900  Level Jacksonville Center
Sun 06:39:41 PM 29.7697 -81.8875 286° West 84 97 7,900  Level Jacksonville Center
Sun 06:40:42 PM 29.7764 -81.9139 286° West 84 97 7,900  Level Jacksonville Center
Sun 06:41:49 PM 29.7828 -81.9425 284° West 85 98 7,900  Level Jacksonville Center
Sun 06:42:56 PM 29.7914 -81.9711 289° West 84 97 7,900  Level Jacksonville Center
Sun 06:43:51 PM 29.7978 -81.9950 287° West 87 100 7,900  Level Jacksonville Center
Sun 06:44:52 PM 29.8042 -82.0214 286° West 87 100 7,900  Level Jacksonville Center
Sun 06:45:52 PM 29.8106 -82.0475 286° West 86 99 7,900  Level Jacksonville Center
Sun 06:46:54 PM 29.8192 -82.0764 289° West 87 100 7,900  Level Jacksonville Center
Sun 06:47:48 PM 29.8256 -82.1000 287° West 87 100 7,900  Level Jacksonville Center
Sun 06:48:49 PM 29.8319 -82.1264 286° West 85 98 7,900  Level Jacksonville Center
Sun 06:49:50 PM 29.8383 -82.1528 286° West 84 97 7,900  Level Jacksonville Center
Sun 06:50:51 PM 29.8469 -82.1767 293° West 85 98 7,900  Level Jacksonville Center
Sun 06:51:52 PM 29.8533 -82.2053 284° West 86 99 7,900  Level Jacksonville Center
Sun 06:52:43 PM 29.8597 -82.2244 291° West 86 99 7,900  Level Jacksonville Center
Sun 06:53:43 PM 29.8683 -82.2506 291° West 91 105 7,900  Level Jacksonville Center
Sun 06:54:43 PM 29.8725 -82.2769 280° West 91 105 7,900  Level Jacksonville Center
Sun 06:55:43 PM 29.8811 -82.3033 291° West 91 105 7,900  Level Jacksonville Center
Sun 06:56:43 PM 29.8875 -82.3294 286° West 86 99 7,900  Level Jacksonville Center
Sun 06:57:43 PM 29.8917 -82.3489 284° West 86 99 7,900  Level Jacksonville Center
Sun 06:58:43 PM 29.9000 -82.3750 290° West 86 99 7,900 50 Level Jacksonville Center
Sun 06:59:43 PM 29.9064 -82.4039 284° West 86 99 8,000 50 Climbing Jacksonville Center
Sun 07:00:43 PM 29.9128 -82.4278 287° West 86 99 8,000  Level Jacksonville Center
Sun 07:01:43 PM 29.9192 -82.4542 286° West 86 99 8,000  Level Jacksonville Center
Sun 07:02:43 PM 29.9256 -82.4803 286° West 86 99 8,000  Level Jacksonville Center
Sun 07:03:43 PM 29.9319 -82.5044 287° West 86 99 8,000  Level Jacksonville Center
Sun 07:04:43 PM 29.9403 -82.5283 292° West 86 99 8,000  Level Jacksonville Center
Sun 07:05:43 PM 29.9467 -82.5547 286° West 86 99 8,000  Level Jacksonville Center
Sun 07:06:43 PM 29.9508 -82.5808 280° West 86 99 8,000  Level Jacksonville Center
Sun 07:07:43 PM 29.9592 -82.6050 292° West 86 99 8,000  Level Jacksonville Center
Sun 07:08:43 PM 29.9656 -82.6336 284° West 86 99 8,000  Level Jacksonville Center
Sun 07:09:43 PM 29.9719 -82.6600 286° West 86 99 8,000  Level Jacksonville Center
Sun 07:10:43 PM 29.9803 -82.6864 290° West 86 99 8,000  Level Jacksonville Center
Sun 07:11:43 PM 29.9867 -82.7103 287° West 86 99 8,000  Level Jacksonville Center
Sun 07:12:43 PM 29.9928 -82.7367 285° West 86 99 8,000  Level Jacksonville Center
Sun 07:13:43 PM 30.0014 -82.7606 293° West 86 99 8,000  Level Jacksonville Center
Sun 07:14:43 PM 30.0075 -82.7869 285° West 86 99 8,000  Level Jacksonville Center
Sun 07:15:43 PM 30.0139 -82.8133 286° West 86 99 8,000  Level Jacksonville Center
Sun 07:16:43 PM 30.0203 -82.8397 286° West 86 99 8,000  Level Jacksonville Center
Sun 07:17:43 PM 30.0264 -82.8661 285° West 86 99 8,000  Level Jacksonville Center
Sun 07:18:43 PM 30.0328 -82.8903 287° West 86 99 8,000  Level Jacksonville Center
Sun 07:19:43 PM 30.0389 -82.9167 285° West 86 99 8,000  Level Jacksonville Center
Sun 07:20:43 PM 30.0472 -82.9431 290° West 86 99 8,000  Level Jacksonville Center
Sun 07:21:43 PM 30.0536 -82.9694 286° West 86 99 8,000  Level Jacksonville Center
Sun 07:22:43 PM 30.0597 -82.9933 286° West 86 99 8,000  Level Jacksonville Center
Sun 07:23:43 PM 30.0661 -83.0197 286° West 86 99 8,000  Level Jacksonville Center
Sun 07:24:43 PM 30.0744 -83.0461 290° West 86 99 8,000  Level Jacksonville Center
Sun 07:25:43 PM 30.0786 -83.0725 280° West 86 99 8,000 -50 Level Jacksonville Center
Sun 07:26:43 PM 30.0867 -83.0992 289° West 86 99 7,900  Descending Jacksonville Center
Sun 07:27:43 PM 30.0950 -83.1231 292° West 86 99 8,000 50 Climbing Jacksonville Center
Sun 07:28:43 PM 30.0992 -83.1494 280° West 86 99 8,000 50 Level Jacksonville Center
Sun 07:29:43 PM 30.1056 -83.1736 287° West 86 99 8,100 50 Climbing Jacksonville Center
Sun 07:30:43 PM 30.1117 -83.1975 286° West 86 99 8,100 -50 Level Jacksonville Center
Sun 07:31:43 PM 30.1178 -83.2217 286° West 86 99 8,000 -50 Descending Jacksonville Center
Sun 07:32:43 PM 30.1261 -83.2503 289° West 91 105 8,000  Level Jacksonville Center
Sun 07:33:43 PM 30.1322 -83.2769 285° West 91 105 8,000  Level Jacksonville Center
Sun 07:34:43 PM 30.1364 -83.3033 280° West 91 105 8,000  Level Jacksonville Center
Sun 07:35:43 PM 30.1447 -83.3297 290° West 91 105 8,000 50 Level Jacksonville Center
Sun 07:36:43 PM 30.1531 -83.3561 290° West 91 105 8,100  Climbing Jacksonville Center
Sun 07:37:43 PM 30.1592 -83.3828 285° West 91 105 8,000 -50 Descending Jacksonville Center
Sun 07:38:43 PM 30.1653 -83.4092 285° West 91 105 8,000  Level Jacksonville Center
Sun 07:39:43 PM 30.1756 -83.4381 292° West 91 105 8,000  Level Jacksonville Center
Sun 07:40:43 PM 30.1797 -83.4644 280° West 86 99 8,000  Level Jacksonville Center
Sun 07:41:43 PM 30.1836 -83.4933 279° West 86 99 8,000  Level Jacksonville Center
Sun 07:42:43 PM 30.1897 -83.5244 283° West 86 99 8,000  Level Jacksonville Center
Sun 07:43:43 PM 30.1981 -83.5486 292° West 86 99 8,000 -150 Level Jacksonville Center
Sun 07:44:43 PM 30.2103 -83.5800 294° West 92 106 7,700 -500 Descending Jacksonville Center
Sun 07:45:43 PM 30.2228 -83.6089 297° West 92 106 7,000 -700 Descending Jacksonville Center
Sun 07:47:00 PM 30.2219 -83.6433 268° West  Level FlightAware Approximate
Sun 07:54:00 PM 30.2172 -83.8312 268° West  Level FlightAware Approximate
Sun 07:55:00 PM 30.2222 -83.8657 292° West  Level FlightAware Approximate
Sun 07:56:00 PM 30.2310 -83.8906 292° West  Level FlightAware Approximate
Sun 07:57:00 PM 30.2398 -83.9154 292° West  Level FlightAware Approximate
Sun 07:58:00 PM 30.2486 -83.9403 292° West  Level FlightAware Approximate
Sun 07:59:00 PM 30.2574 -83.9651 292° West  Level FlightAware Approximate
Sun 08:00:00 PM 30.2662 -83.9900 292° West  Level FlightAware Approximate
Sun 08:01:00 PM 30.2749 -84.0148 292° West  Level FlightAware Approximate
Sun 08:02:00 PM 30.2837 -84.0397 292° West  Level FlightAware Approximate
Sun 08:03:00 PM 30.2925 -84.0646 292° West  Level FlightAware Approximate
Sun 08:04:00 PM 30.3012 -84.0895 292° West  Level FlightAware Approximate
Sun 08:05:00 PM 30.3100 -84.1143 292° West  Level FlightAware Approximate
Sun 08:06:00 PM 30.3190 -84.1391 295° West  Level FlightAware Approximate
Sun 08:07:00 PM 30.3287 -84.1635 295° West  Level FlightAware Approximate
Sun 08:08:00 PM 30.3385 -84.1879 295° West  Level FlightAware Approximate
Sun 08:09:00 PM 30.3482 -84.2123 295° West  Level FlightAware Approximate
Sun 08:10:00 PM 30.3595 -84.2357 300° West  Level FlightAware Approximate
Sun 08:11:00 PM 30.3684 -84.2602 281° West  Level FlightAware Approximate
Sun 08:12:00 PM 30.3728 -84.2866 281° West  Level FlightAware Approximate
Sun 08:13:00 PM 30.3772 -84.3130 281° West  Level FlightAware Approximate
Sun 08:14:00 PM 30.3816 -84.3394 281° West  Level FlightAware Approximate
Sun 08:15:00 PM 30.3833 -84.3500 281° West  Level FlightAware Approximate
Sun 08:16:00 PM 30.3967 -84.3509 281° West  Level Estimated
Sun 08:17:00 PM 30.3967 -84.3509 281° West  Level Estimated
Sun 08:18:00 PM 30.3967 -84.3509 281° West  Level Estimated
Sun 08:19:00 PM 30.3967 -84.3509 281° West  Level Estimated
Sun 08:20:00 PM 30.3967 -84.3509 281° West  Level Estimated
Sun 08:21:00 PM 30.3967 -84.3509 281° West  Level Estimated

Login

Don't have an account? Register now (free) for customized features, flight alerts, and more!